createdAt,value
2023-05-07T00:01:41.765Z,83.79
2023-05-07T00:04:09.696Z,83.57
2023-05-07T00:06:37.241Z,83.76
2023-05-07T00:09:05.631Z,83.97
2023-05-07T00:11:35.060Z,83.56
2023-05-07T00:14:03.886Z,83.56
2023-05-07T00:16:31.245Z,83.39
2023-05-07T00:18:58.880Z,83.76
2023-05-07T00:21:28.963Z,83.17
2023-05-07T00:23:56.261Z,83.33
2023-05-07T00:26:23.867Z,83.55
2023-05-07T00:28:51.999Z,83.58
2023-05-07T00:31:19.624Z,84.28
2023-05-07T00:33:47.871Z,83.85
2023-05-07T00:36:15.151Z,84.60
2023-05-07T00:38:42.439Z,84.20
2023-05-07T00:41:10.010Z,84.41
2023-05-07T00:43:37.304Z,84.77
2023-05-07T00:46:04.765Z,84.85
2023-05-07T00:48:33.007Z,84.17
2023-05-07T00:51:00.462Z,84.69
2023-05-07T00:53:27.808Z,83.33
2023-05-07T00:55:56.863Z,84.85
2023-05-07T00:58:25.216Z,85.47
2023-05-07T01:00:53.068Z,85.07
2023-05-07T01:03:21.860Z,85.69
2023-05-07T01:05:51.041Z,86.37
2023-05-07T01:08:19.716Z,87.01
2023-05-07T01:10:47.951Z,88.54
2023-05-07T01:13:16.367Z,85.67
2023-05-07T01:15:44.777Z,83.69
2023-05-07T01:18:12.671Z,84.11
2023-05-07T01:20:40.085Z,84.00
2023-05-07T01:23:08.333Z,85.73
2023-05-07T01:25:36.283Z,86.66
2023-05-07T01:28:03.708Z,86.35
2023-05-07T01:30:33.073Z,86.99
2023-05-07T01:33:10.458Z,87.50
2023-05-07T01:35:41.765Z,86.39
2023-05-07T01:38:10.282Z,87.23
2023-05-07T01:40:37.930Z,87.55
2023-05-07T01:43:06.566Z,86.25
2023-05-07T01:45:35.524Z,85.54
2023-05-07T01:48:04.353Z,85.94
2023-05-07T01:50:33.474Z,86.24
2023-05-07T01:53:02.701Z,84.48
2023-05-07T01:55:30.340Z,84.10
2023-05-07T01:57:57.726Z,83.88
2023-05-07T02:00:25.605Z,85.02
2023-05-07T02:02:54.079Z,85.79
2023-05-07T02:05:22.255Z,85.51
2023-05-07T02:07:50.679Z,85.23
2023-05-07T02:10:18.660Z,85.55
2023-05-07T02:12:46.019Z,85.43
2023-05-07T02:15:13.410Z,85.06
2023-05-07T02:18:00.482Z,85.55
2023-05-07T02:20:28.090Z,87.59
2023-05-07T02:22:58.553Z,86.80
2023-05-07T02:25:26.620Z,86.19
2023-05-07T02:27:53.966Z,84.87
2023-05-07T02:30:22.985Z,85.07
2023-05-07T02:32:52.167Z,87.14
2023-05-07T02:35:19.820Z,89.15
2023-05-07T02:37:47.345Z,88.27
2023-05-07T02:40:15.149Z,86.88
2023-05-07T02:42:42.388Z,87.26
2023-05-07T02:45:10.457Z,88.39
2023-05-07T02:47:38.841Z,88.14
2023-05-07T02:50:07.089Z,86.90
2023-05-07T02:52:35.573Z,88.30
2023-05-07T02:55:03.771Z,87.64
2023-05-07T02:57:31.132Z,85.84
2023-05-07T02:59:59.399Z,86.54
2023-05-07T03:02:29.549Z,87.18
2023-05-07T03:04:57.201Z,87.32
2023-05-07T03:07:24.530Z,87.72
2023-05-07T03:09:52.152Z,88.09
2023-05-07T03:12:19.535Z,87.62
2023-05-07T03:14:46.899Z,88.17
2023-05-07T03:17:17.263Z,88.83
2023-05-07T03:19:44.629Z,89.56
2023-05-07T03:22:11.990Z,89.68
2023-05-07T03:24:39.575Z,89.96
2023-05-07T03:27:06.878Z,89.93
2023-05-07T03:29:35.408Z,88.97
2023-05-07T03:32:03.149Z,89.66
2023-05-07T03:34:30.501Z,89.92
2023-05-07T03:36:57.763Z,91.87
2023-05-07T03:39:25.543Z,92.82
2023-05-07T03:41:53.445Z,91.51
2023-05-07T03:44:21.359Z,91.53
2023-05-07T03:46:50.856Z,91.20
2023-05-07T03:49:18.723Z,92.50
2023-05-07T03:51:46.435Z,91.79
2023-05-07T03:54:14.335Z,91.04
2023-05-07T03:56:43.292Z,90.94
2023-05-07T03:59:10.635Z,90.72
2023-05-07T04:01:38.466Z,91.44
2023-05-07T04:04:06.328Z,94.40
2023-05-07T04:06:34.593Z,93.86
2023-05-07T04:09:01.908Z,95.50
2023-05-07T04:11:29.995Z,93.96
2023-05-07T04:13:57.334Z,93.88
2023-05-07T04:16:24.812Z,93.60
2023-05-07T04:18:52.610Z,94.01
2023-05-07T04:21:21.597Z,94.93
2023-05-07T04:23:50.150Z,93.93
2023-05-07T04:26:17.772Z,94.73
2023-05-07T04:28:45.332Z,95.61
2023-05-07T04:31:12.754Z,94.96
2023-05-07T04:33:41.899Z,94.21
2023-05-07T04:36:09.863Z,93.10
2023-05-07T04:38:38.024Z,92.91
2023-05-07T04:41:07.703Z,92.21
2023-05-07T04:43:35.606Z,93.90
2023-05-07T04:46:03.097Z,92.91
2023-05-07T04:48:31.897Z,92.21
2023-05-07T04:50:59.574Z,91.71
2023-05-07T04:53:27.190Z,92.09
2023-05-07T04:55:59.158Z,92.28
2023-05-07T04:58:27.082Z,92.24
2023-05-07T05:00:55.377Z,92.21
2023-05-07T05:03:23.198Z,92.05
2023-05-07T05:05:52.752Z,90.49
2023-05-07T05:08:21.281Z,91.36
2023-05-07T05:10:51.099Z,92.63
2023-05-07T05:13:19.182Z,93.31
2023-05-07T05:15:47.378Z,91.63
2023-05-07T05:18:14.809Z,91.10
2023-05-07T05:20:42.122Z,91.46
2023-05-07T05:23:12.556Z,91.57
2023-05-07T05:25:41.519Z,91.37
2023-05-07T05:28:09.119Z,90.97
2023-05-07T05:30:36.757Z,91.15
2023-05-07T05:33:04.357Z,91.89
2023-05-07T05:35:32.863Z,91.61
2023-05-07T05:38:02.362Z,91.85
2023-05-07T05:40:29.922Z,91.79
2023-05-07T05:42:57.617Z,91.78
2023-05-07T05:45:26.581Z,91.38
2023-05-07T05:47:54.768Z,90.28
2023-05-07T05:50:22.410Z,89.85
2023-05-07T05:52:50.445Z,89.10
2023-05-07T05:55:18.333Z,90.49
2023-05-07T05:57:47.273Z,90.63
2023-05-07T06:00:15.484Z,89.80
2023-05-07T06:02:46.077Z,90.79
2023-05-07T06:05:14.760Z,90.59
2023-05-07T06:07:42.897Z,90.34
2023-05-07T06:10:10.799Z,91.79
2023-05-07T06:12:39.367Z,91.27
2023-05-07T06:15:07.498Z,89.76
2023-05-07T06:17:35.511Z,90.10
2023-05-07T06:20:03.397Z,90.17
2023-05-07T06:22:30.844Z,89.58
2023-05-07T06:24:59.150Z,88.91
2023-05-07T06:27:27.083Z,89.74
2023-05-07T06:29:54.643Z,88.27
2023-05-07T06:32:22.560Z,88.94
2023-05-07T06:34:51.263Z,87.38
2023-05-07T06:37:19.063Z,84.92
2023-05-07T06:39:47.090Z,84.81
2023-05-07T06:42:15.224Z,83.47
2023-05-07T06:44:43.532Z,82.73
2023-05-07T06:47:11.903Z,84.07
2023-05-07T06:49:41.884Z,82.20
2023-05-07T06:52:09.702Z,82.16
2023-05-07T06:54:38.108Z,81.38
2023-05-07T06:57:06.838Z,79.62
2023-05-07T06:59:34.702Z,78.16
2023-05-07T07:02:02.099Z,80.17
2023-05-07T07:04:29.994Z,77.87
2023-05-07T07:06:59.427Z,78.46
2023-05-07T07:09:26.926Z,77.71
2023-05-07T07:11:54.662Z,76.06
2023-05-07T07:14:22.450Z,75.83
2023-05-07T07:16:50.070Z,74.28
2023-05-07T07:19:18.238Z,72.12
2023-05-07T07:21:47.918Z,71.90
2023-05-07T07:24:20.355Z,67.52
2023-05-07T07:26:49.144Z,68.04
2023-05-07T07:29:17.154Z,68.78
2023-05-07T07:31:46.197Z,66.17
2023-05-07T07:34:13.852Z,63.43
2023-05-07T07:36:46.246Z,60.89
2023-05-07T07:39:15.032Z,58.21
2023-05-07T07:41:42.539Z,56.61
2023-05-07T07:44:09.985Z,52.82
2023-05-07T07:46:39.345Z,52.27
2023-05-07T07:49:06.730Z,52.72
2023-05-07T07:51:34.460Z,52.69
2023-05-07T07:54:04.159Z,53.03
2023-05-07T07:56:34.810Z,53.04
2023-05-07T07:59:03.221Z,51.46
2023-05-07T08:01:31.886Z,51.30
2023-05-07T08:04:00.132Z,52.24
2023-05-07T08:06:28.222Z,47.69
2023-05-07T08:08:56.372Z,46.75
2023-05-07T08:11:24.161Z,46.99
2023-05-07T08:13:51.872Z,47.02
2023-05-07T08:16:20.639Z,47.06
2023-05-07T08:18:49.316Z,47.09
2023-05-07T08:21:17.074Z,45.66
2023-05-07T08:23:44.505Z,45.83
2023-05-07T08:26:12.486Z,45.22
2023-05-07T08:28:40.764Z,45.61
2023-05-07T08:31:08.929Z,42.51
2023-05-07T08:33:37.024Z,44.16
2023-05-07T08:36:05.075Z,43.89
2023-05-07T08:38:33.250Z,45.35
2023-05-07T08:41:01.414Z,43.59
2023-05-07T08:43:33.550Z,43.74
2023-05-07T08:46:07.007Z,47.08
2023-05-07T08:48:37.674Z,47.35
2023-05-07T08:51:06.667Z,49.75
2023-05-07T08:53:35.165Z,47.58
2023-05-07T08:56:03.819Z,47.70
2023-05-07T08:58:31.596Z,51.00
2023-05-07T09:01:02.700Z,51.56
2023-05-07T09:03:31.666Z,52.80
2023-05-07T09:06:00.366Z,52.27
2023-05-07T09:08:28.984Z,52.26
2023-05-07T09:10:59.616Z,49.49
2023-05-07T09:13:29.962Z,48.44
2023-05-07T09:15:58.284Z,46.79
2023-05-07T09:18:26.759Z,47.34
2023-05-07T09:20:54.592Z,46.85
2023-05-07T09:23:24.096Z,47.31
2023-05-07T09:26:01.241Z,44.34
2023-05-07T09:28:29.499Z,43.03
2023-05-07T09:30:57.373Z,45.11
2023-05-07T09:33:29.878Z,47.62
2023-05-07T09:35:58.577Z,45.05
2023-05-07T09:38:26.993Z,45.32
2023-05-07T09:41:13.787Z,46.74
2023-05-07T09:43:43.284Z,44.13
2023-05-07T09:46:16.366Z,44.01
2023-05-07T09:48:45.872Z,43.57
2023-05-07T09:51:16.861Z,45.39
2023-05-07T09:53:47.392Z,45.14
2023-05-07T09:56:16.909Z,45.61
2023-05-07T09:58:47.138Z,46.00
2023-05-07T10:01:15.347Z,43.98
2023-05-07T10:03:44.962Z,44.46
2023-05-07T10:06:16.916Z,41.58
2023-05-07T10:08:45.947Z,41.94
2023-05-07T10:11:16.226Z,42.02
2023-05-07T10:13:45.738Z,40.14
2023-05-07T10:16:14.051Z,38.09
2023-05-07T10:18:43.050Z,39.23
2023-05-07T10:21:24.699Z,37.60
2023-05-07T10:24:15.894Z,38.21
2023-05-07T10:26:46.317Z,37.63
2023-05-07T10:29:22.482Z,38.69
2023-05-07T10:31:54.206Z,40.74
2023-05-07T10:34:29.138Z,38.10
2023-05-07T10:36:58.355Z,37.80
2023-05-07T10:39:28.075Z,37.32
2023-05-07T10:41:56.717Z,33.77
2023-05-07T10:44:29.288Z,34.22
2023-05-07T10:47:14.708Z,34.87
2023-05-07T10:49:42.892Z,35.05
2023-05-07T10:52:31.496Z,35.74
2023-05-07T10:55:26.437Z,33.90
2023-05-07T10:57:55.058Z,35.14
2023-05-07T11:00:38.889Z,35.40
2023-05-07T11:03:08.419Z,35.42
2023-05-07T11:05:38.741Z,35.36
2023-05-07T11:08:08.102Z,35.88
2023-05-07T11:10:51.743Z,36.44
2023-05-07T11:13:42.927Z,36.88
2023-05-07T11:16:29.089Z,33.04
2023-05-07T11:18:59.123Z,34.67
2023-05-07T11:21:35.469Z,34.73
2023-05-07T11:24:06.993Z,35.44
2023-05-07T11:26:49.673Z,36.63
2023-05-07T11:29:23.582Z,35.84
2023-05-07T11:31:56.245Z,35.08
2023-05-07T11:34:26.452Z,35.05
2023-05-07T11:36:54.851Z,35.44
2023-05-07T11:39:37.289Z,35.08
2023-05-07T11:42:05.298Z,34.84
2023-05-07T11:44:47.384Z,33.27
2023-05-07T11:47:19.753Z,34.73
2023-05-07T11:49:52.094Z,34.20
2023-05-07T11:52:21.760Z,34.59
2023-05-07T11:54:54.333Z,34.98
2023-05-07T11:57:22.683Z,35.95
2023-05-07T12:00:00.428Z,35.57
2023-05-07T12:02:29.479Z,35.29
2023-05-07T12:04:57.215Z,35.20
2023-05-07T12:07:25.424Z,35.07
2023-05-07T12:09:53.421Z,32.82
2023-05-07T12:12:21.125Z,33.24
2023-05-07T12:14:49.253Z,32.44
2023-05-07T12:17:17.884Z,33.73
2023-05-07T12:19:46.625Z,33.02
2023-05-07T12:22:14.356Z,33.21
2023-05-07T12:24:49.280Z,33.60
2023-05-07T12:27:18.356Z,32.46
2023-05-07T12:29:49.904Z,33.14
2023-05-07T12:32:19.197Z,32.50
2023-05-07T12:34:47.578Z,33.27
2023-05-07T12:37:15.054Z,34.18
2023-05-07T12:39:49.766Z,33.89
2023-05-07T12:42:20.977Z,34.93
2023-05-07T12:44:48.709Z,33.54
2023-05-07T12:47:16.502Z,34.71
2023-05-07T12:49:46.139Z,33.41
2023-05-07T12:52:14.592Z,34.49
2023-05-07T12:54:41.943Z,32.77
2023-05-07T12:57:11.100Z,33.66
2023-05-07T12:59:42.963Z,33.66
2023-05-07T13:02:10.918Z,31.56
2023-05-07T13:04:39.666Z,33.42
2023-05-07T13:07:06.992Z,32.55
2023-05-07T13:09:34.307Z,33.41
2023-05-07T13:12:02.745Z,34.27
2023-05-07T13:14:30.199Z,34.13
2023-05-07T13:16:57.550Z,33.75
2023-05-07T13:19:25.187Z,32.76
2023-05-07T13:21:52.448Z,34.22
2023-05-07T13:24:19.764Z,33.22
2023-05-07T13:26:47.424Z,32.94
2023-05-07T13:29:14.793Z,33.72
2023-05-07T13:31:45.270Z,33.10
2023-05-07T13:34:12.922Z,33.75
2023-05-07T13:36:41.133Z,33.44
2023-05-07T13:39:08.761Z,32.59
2023-05-07T13:41:36.661Z,33.16
2023-05-07T13:44:04.173Z,33.17
2023-05-07T13:46:31.750Z,33.23
2023-05-07T13:48:59.379Z,33.59
2023-05-07T13:51:27.102Z,34.39
2023-05-07T13:53:55.461Z,33.26
2023-05-07T13:56:23.067Z,33.75
2023-05-07T13:58:59.509Z,32.69
2023-05-07T14:01:28.822Z,31.60
2023-05-07T14:03:57.888Z,31.84
2023-05-07T14:06:25.183Z,30.76
2023-05-07T14:08:52.722Z,32.47
2023-05-07T14:11:20.445Z,31.09
2023-05-07T14:13:47.815Z,31.46
2023-05-07T14:16:16.600Z,31.75
2023-05-07T14:18:44.319Z,32.19
2023-05-07T14:21:11.630Z,32.67
2023-05-07T14:23:38.957Z,33.48
2023-05-07T14:26:06.590Z,33.71
2023-05-07T14:28:33.908Z,34.78
2023-05-07T14:31:01.332Z,35.41
2023-05-07T14:33:28.996Z,35.04
2023-05-07T14:35:56.398Z,34.14
2023-05-07T14:38:23.829Z,34.16
2023-05-07T14:40:51.785Z,33.25
2023-05-07T14:43:19.233Z,32.56
2023-05-07T14:45:47.264Z,31.32
2023-05-07T14:48:16.347Z,31.10
2023-05-07T14:50:44.134Z,30.61
2023-05-07T14:53:11.405Z,31.07
2023-05-07T14:55:39.580Z,32.04
2023-05-07T14:58:07.027Z,31.74
2023-05-07T15:00:34.924Z,32.26
2023-05-07T15:03:12.116Z,31.57
2023-05-07T15:05:41.038Z,32.31
2023-05-07T15:08:08.834Z,32.84
2023-05-07T15:10:42.443Z,33.83
2023-05-07T15:13:15.850Z,33.57
2023-05-07T15:15:45.427Z,32.24
2023-05-07T15:18:13.254Z,30.00
2023-05-07T15:20:41.732Z,28.31
2023-05-07T15:23:16.379Z,27.73
2023-05-07T15:25:44.204Z,27.82
2023-05-07T15:28:11.867Z,30.27
2023-05-07T15:30:39.286Z,29.86
2023-05-07T15:33:07.007Z,28.80
2023-05-07T15:35:34.678Z,30.49
2023-05-07T15:38:04.786Z,31.56
2023-05-07T15:40:33.783Z,32.37
2023-05-07T15:43:01.423Z,32.63
2023-05-07T15:45:32.281Z,33.10
2023-05-07T15:48:00.517Z,33.08
2023-05-07T15:50:29.727Z,31.74
2023-05-07T15:52:56.999Z,30.96
2023-05-07T15:55:24.916Z,30.76
2023-05-07T15:57:52.788Z,29.80
2023-05-07T16:00:20.496Z,30.49
2023-05-07T16:02:48.402Z,30.75
2023-05-07T16:05:16.105Z,31.90
2023-05-07T16:07:44.741Z,34.99
2023-05-07T16:10:12.567Z,37.45
2023-05-07T16:12:40.005Z,37.86
2023-05-07T16:15:08.673Z,39.25
2023-05-07T16:17:36.522Z,39.72
2023-05-07T16:20:06.598Z,41.22
2023-05-07T16:22:34.143Z,42.16
2023-05-07T16:25:02.743Z,42.61
2023-05-07T16:29:57.930Z,41.77
2023-05-07T16:32:28.510Z,41.18
2023-05-07T16:34:55.972Z,41.77
2023-05-07T16:37:23.334Z,42.05
2023-05-07T16:39:51.148Z,43.05
2023-05-07T16:42:18.437Z,43.76
2023-05-07T16:44:46.052Z,44.80
2023-05-07T16:47:13.660Z,45.40
2023-05-07T16:49:41.004Z,46.49
2023-05-07T16:52:08.686Z,45.88
2023-05-07T16:54:39.834Z,46.54
2023-05-07T16:57:07.354Z,47.63
2023-05-07T16:59:34.673Z,48.68
2023-05-07T17:02:02.256Z,49.55
2023-05-07T17:04:30.081Z,49.49
2023-05-07T17:06:57.890Z,49.39
2023-05-07T17:09:25.609Z,49.29
2023-05-07T17:11:52.844Z,50.12
2023-05-07T17:14:20.119Z,50.29
2023-05-07T17:16:47.961Z,50.79
2023-05-07T17:19:15.400Z,51.61
2023-05-07T17:21:42.954Z,51.73
2023-05-07T17:24:10.698Z,51.43
2023-05-07T17:26:39.419Z,52.48
2023-05-07T17:29:06.897Z,52.80
2023-05-07T17:31:34.632Z,53.17
2023-05-07T17:34:02.016Z,53.74
2023-05-07T17:36:29.317Z,53.94
2023-05-07T17:38:57.009Z,54.19
2023-05-07T17:41:24.452Z,54.62
2023-05-07T17:43:51.768Z,55.00
2023-05-07T17:46:19.561Z,55.00
2023-05-07T17:48:47.483Z,55.06
2023-05-07T17:51:14.992Z,55.37
2023-05-07T17:53:43.945Z,56.25
2023-05-07T17:56:12.246Z,56.75
2023-05-07T17:58:57.372Z,56.53
2023-05-07T18:01:27.325Z,57.29
2023-05-07T18:03:55.760Z,56.91
2023-05-07T18:06:23.471Z,57.29
2023-05-07T18:08:50.925Z,57.07
2023-05-07T18:11:18.545Z,57.76
2023-05-07T18:13:45.865Z,58.11
2023-05-07T18:16:15.007Z,58.50
2023-05-07T18:18:42.834Z,58.82
2023-05-07T18:21:15.818Z,58.57
2023-05-07T18:23:46.020Z,59.14
2023-05-07T18:26:13.566Z,58.77
2023-05-07T18:28:41.594Z,59.15
2023-05-07T18:31:11.593Z,58.90
2023-05-07T18:33:39.425Z,59.15
2023-05-07T18:36:07.103Z,59.08
2023-05-07T18:38:34.745Z,59.63
2023-05-07T18:41:04.576Z,59.75
2023-05-07T18:43:32.428Z,59.57
2023-05-07T18:46:00.340Z,60.18
2023-05-07T18:48:27.768Z,60.16
2023-05-07T18:50:55.142Z,59.96
2023-05-07T18:53:23.097Z,59.76
2023-05-07T18:55:51.320Z,60.61
2023-05-07T18:58:20.381Z,60.86
2023-05-07T19:00:50.272Z,60.76
2023-05-07T19:03:17.694Z,61.86
2023-05-07T19:05:45.838Z,62.45
2023-05-07T19:08:13.975Z,63.24
2023-05-07T19:10:41.257Z,62.62
2023-05-07T19:13:08.768Z,64.72
2023-05-07T19:15:36.486Z,64.08
2023-05-07T19:18:04.017Z,64.65
2023-05-07T19:20:31.442Z,63.37
2023-05-07T19:22:59.207Z,65.52
2023-05-07T19:25:27.760Z,64.75
2023-05-07T19:27:56.842Z,65.59
2023-05-07T19:30:24.639Z,65.54
2023-05-07T19:32:52.472Z,66.12
2023-05-07T19:35:20.045Z,65.56
2023-05-07T19:37:47.828Z,65.92
2023-05-07T19:40:15.245Z,68.40
2023-05-07T19:42:42.607Z,67.92
2023-05-07T19:45:10.918Z,67.68
2023-05-07T19:47:38.542Z,68.72
2023-05-07T19:50:06.658Z,69.11
2023-05-07T19:52:34.916Z,68.34
2023-05-07T19:55:02.361Z,68.92
2023-05-07T19:57:29.762Z,68.82
2023-05-07T19:59:57.690Z,68.65
2023-05-07T20:02:25.226Z,69.28
2023-05-07T20:04:55.244Z,69.20
2023-05-07T20:07:22.652Z,69.79
2023-05-07T20:09:50.132Z,68.54
2023-05-07T20:12:18.345Z,68.68
2023-05-07T20:14:45.684Z,69.29
2023-05-07T20:17:13.054Z,69.17
2023-05-07T20:19:40.786Z,68.77
2023-05-07T20:22:08.117Z,68.50
2023-05-07T20:24:39.487Z,68.15
2023-05-07T20:27:07.521Z,68.85
2023-05-07T20:29:35.125Z,69.51
2023-05-07T20:32:02.774Z,70.01
2023-05-07T20:34:30.670Z,71.55
2023-05-07T20:36:58.201Z,71.09
2023-05-07T20:39:25.659Z,71.87
2023-05-07T20:41:53.541Z,71.60
2023-05-07T20:44:20.935Z,72.28
2023-05-07T20:46:48.308Z,72.13
2023-05-07T20:49:16.692Z,72.34
2023-05-07T20:51:43.959Z,72.28
2023-05-07T20:54:13.155Z,71.94
2023-05-07T20:56:40.890Z,71.20
2023-05-07T20:59:08.273Z,72.28
2023-05-07T21:01:36.307Z,72.31
2023-05-07T21:04:04.053Z,71.63
2023-05-07T21:06:31.463Z,71.92
2023-05-07T21:08:58.833Z,71.84
2023-05-07T21:11:26.603Z,72.02
2023-05-07T21:13:53.990Z,71.70
2023-05-07T21:16:22.968Z,72.61
2023-05-07T21:18:50.812Z,72.39
2023-05-07T21:21:18.174Z,71.98
2023-05-07T21:23:45.477Z,72.78
2023-05-07T21:26:18.847Z,73.34
2023-05-07T21:28:46.671Z,72.70
2023-05-07T21:31:14.288Z,74.49
2023-05-07T21:33:43.025Z,75.19
2023-05-07T21:36:10.661Z,75.22
2023-05-07T21:38:38.884Z,75.22
2023-05-07T21:41:06.944Z,74.84
2023-05-07T21:43:34.256Z,74.16
2023-05-07T21:46:03.890Z,74.69
2023-05-07T21:48:31.276Z,74.32
2023-05-07T21:51:08.511Z,74.83
2023-05-07T21:53:36.564Z,75.58
2023-05-07T21:56:05.196Z,75.90
2023-05-07T21:58:32.789Z,75.38
2023-05-07T22:01:01.537Z,75.26
2023-05-07T22:03:30.245Z,74.71
2023-05-07T22:05:57.708Z,76.23
2023-05-07T22:08:25.043Z,76.12
2023-05-07T22:10:52.798Z,76.71
2023-05-07T22:13:20.289Z,76.14
2023-05-07T22:15:56.800Z,76.60
2023-05-07T22:18:26.234Z,77.10
2023-05-07T22:20:53.616Z,76.86
2023-05-07T22:23:22.235Z,76.87
2023-05-07T22:25:49.777Z,76.34
2023-05-07T22:28:17.588Z,76.12
2023-05-07T22:30:44.770Z,75.58
2023-05-07T22:33:12.377Z,76.43
2023-05-07T22:35:39.745Z,76.28
2023-05-07T22:38:07.107Z,76.42
2023-05-07T22:40:34.757Z,76.59
2023-05-07T22:43:02.200Z,77.23
2023-05-07T22:45:29.534Z,76.99
2023-05-07T22:47:57.122Z,77.10
2023-05-07T22:50:24.421Z,76.57
2023-05-07T22:52:51.636Z,77.08
2023-05-07T22:55:19.645Z,77.34
2023-05-07T22:57:47.221Z,75.80
2023-05-07T23:00:15.098Z,76.95
2023-05-07T23:02:43.144Z,78.90
2023-05-07T23:05:10.486Z,78.78
2023-05-07T23:07:38.074Z,78.41
2023-05-07T23:10:06.428Z,77.86
2023-05-07T23:12:33.648Z,78.10
2023-05-07T23:15:01.048Z,77.74
2023-05-07T23:17:28.916Z,78.94
2023-05-07T23:19:56.305Z,79.68
2023-05-07T23:22:23.605Z,79.61
2023-05-07T23:24:51.337Z,78.86
2023-05-07T23:27:18.665Z,78.02
2023-05-07T23:29:46.893Z,77.73
2023-05-07T23:32:14.532Z,78.32
2023-05-07T23:34:41.787Z,78.70
2023-05-07T23:37:12.755Z,79.04
2023-05-07T23:39:40.455Z,78.78
2023-05-07T23:42:07.697Z,78.65
2023-05-07T23:44:34.947Z,79.09
2023-05-07T23:47:02.647Z,79.90
2023-05-07T23:49:29.916Z,79.43
2023-05-07T23:51:57.195Z,79.07
2023-05-07T23:54:24.831Z,77.75
2023-05-07T23:56:52.611Z,77.41
2023-05-07T23:59:19.958Z,78.68
